Fosston, Minnesota
Current Conditions -  °F | °C
As of 2:55 PM on Sunday 21 Dec 2014 (Local Time) from KFSE Reporting Station
Haze Haze  
Wind Chill: 22°   Ceiling: 600
Heat Index: 30°   Visibility: 5mi
Dew Point: 28°   Wind: 9mph
Humidity: 93%   Direction: 140°SE
Pressure: 29.63"   Gusts: NA
Location:  47.58°N, 95.75°W
Report Text: KFSE 212055Z AUTO 14008KT 5SM BR OVC006 M01/M02 A2963 RMK AO2
Loading
Personal Weather Stations






























Interactive Weather Map New forecast layout! Learn more

10-Day Weather Forecast

Advertisements
Track Severe Weather on mobile